»·PEaware :: N221XG KSDM-KVNY

N221XG :: KSDM-KVNY

FLIGHT INFORMATION

Flight Status: Arrived
Operator: Privately registered:
United States
More flights under this callsign
Pilot: Ryan L. (9775)
Aircraft: BEECH AIRCRAFT SUPER KING AIR 350
(B350)
More flights by this aircraft type
Origin: KSDM Brown Mun
United States
Destination: KVNY Van Nuys
United States
More flights between these airports :: More routes between these airports
Route: +MZB293 SLI148 SLI V23 LAX LAX320 CANOG
File this flight plan on PilotEdge
Remarks:
Altitude:
(Current/Filed)
8,000ft
Speed:
(Current/Filed)
280kts
Departed: 08-May-19 06:59 PM
Arrived: 08-May-19 07:49 PM
Distance/Time
Traveled:
124nm/0:50
Distance/Time
To Go:
Arrived

Flight Plot

Page will automatically refresh every two minutes.

Flight plan parsing failed; only flown route is shown


Map Options




Map Legend


Flown Route
Filed Route
Departure Airport
Arrival Airport
Navaid (VOR, NDB)
Fix

Horizontal Profiles

Position Reports

Time Latitude Longitude Heading Altitude Ground
Speed
08-May-19 18:47 32.570255 -116.985420 271 530ft 0kts
08-May-19 18:48 32.570255 -116.985420 271 530ft 0kts
08-May-19 18:49 32.570255 -116.985420 271 530ft 0kts
08-May-19 18:51 32.570255 -116.985420 271 530ft 0kts
08-May-19 18:52 32.570504 -116.985777 28 530ft 2kts
08-May-19 18:53 32.570673 -116.984117 96 530ft 12kts
08-May-19 18:54 32.570164 -116.978510 94 530ft 18kts
08-May-19 18:55 32.569670 -116.972533 94 530ft 18kts
08-May-19 18:56 32.569678 -116.968454 19 530ft 6kts
08-May-19 18:57 32.570942 -116.968330 5 528ft 0kts
08-May-19 18:58 32.570964 -116.968328 5 527ft 2kts
08-May-19 18:59 32.571993 -116.971951 275 530ft 73kts
08-May-19 19:00 32.578920 -117.011901 290 1904ft 142kts
08-May-19 19:01 32.595219 -117.060377 291 3002ft 181kts
08-May-19 19:02 32.614961 -117.119584 291 3250ft 191kts
08-May-19 19:03 32.632636 -117.173611 291 5334ft 174kts
08-May-19 19:04 32.658655 -117.218385 357 6933ft 182kts
08-May-19 19:05 32.715295 -117.219209 358 6993ft 207kts
08-May-19 19:06 32.773206 -117.223933 353 6994ft 210kts
08-May-19 19:07 32.819718 -117.263403 318 6993ft 208kts
08-May-19 19:08 32.852898 -117.318294 298 6997ft 207kts
08-May-19 19:09 32.883864 -117.377146 305 6995ft 211kts
08-May-19 19:10 32.918508 -117.434016 307 6994ft 213kts
08-May-19 19:11 32.954400 -117.490566 307 6995ft 213kts
08-May-19 19:12 32.989580 -117.545419 307 7501ft 196kts
08-May-19 19:12 33.018993 -117.591184 307 8007ft 228kts
08-May-19 19:14 33.067281 -117.666655 306 7998ft 253kts
08-May-19 19:15 33.108923 -117.732152 307 7998ft 256kts
08-May-19 19:15 33.143175 -117.785419 307 7996ft 258kts
08-May-19 19:17 33.207797 -117.844279 344 7982ft 260kts
08-May-19 19:17 33.265955 -117.863906 342 7992ft 260kts
08-May-19 19:18 33.335340 -117.889312 342 7992ft 261kts
08-May-19 19:20 33.416581 -117.919135 342 7992ft 262kts
08-May-19 19:20 33.468657 -117.953783 321 7972ft 261kts
08-May-19 19:21 33.525323 -118.008711 319 7976ft 262kts
08-May-19 19:22 33.580608 -118.065798 319 7970ft 262kts
08-May-19 19:23 33.636025 -118.123005 319 7967ft 262kts
08-May-19 19:24 33.691381 -118.180236 319 7966ft 262kts
08-May-19 19:25 33.746880 -118.237716 319 7967ft 262kts
08-May-19 19:26 33.802021 -118.294928 319 7966ft 262kts
08-May-19 19:27 33.857181 -118.352258 319 7966ft 262kts
08-May-19 19:28 33.912176 -118.409512 319 7965ft 262kts
08-May-19 19:29 33.971960 -118.454619 339 7961ft 236kts
08-May-19 19:30 34.030581 -118.481122 339 7012ft 218kts
08-May-19 19:31 34.084640 -118.508542 334 5998ft 196kts
08-May-19 19:32 34.134937 -118.539935 332 6004ft 209kts
08-May-19 19:33 34.187416 -118.572725 333 6002ft 214kts
08-May-19 19:34 34.243082 -118.598150 357 6021ft 224kts
08-May-19 19:35 34.309213 -118.601073 357 6002ft 241kts
08-May-19 19:36 34.369518 -118.603637 357 5991ft 198kts
08-May-19 19:37 34.421720 -118.605766 357 5996ft 178kts
08-May-19 19:38 34.470629 -118.607702 357 5993ft 174kts
08-May-19 19:39 34.509171 -118.586767 72 5928ft 176kts
08-May-19 19:40 34.520056 -118.528943 111 5853ft 178kts
08-May-19 19:41 34.475299 -118.514818 178 5216ft 174kts
08-May-19 19:42 34.427597 -118.511040 177 5201ft 174kts
08-May-19 19:43 34.379509 -118.506491 177 5021ft 172kts
08-May-19 19:44 34.333876 -118.502143 178 3862ft 153kts
08-May-19 19:45 34.293522 -118.498317 178 2859ft 136kts
08-May-19 19:46 34.258911 -118.495072 177 1847ft 121kts
08-May-19 19:47 34.227641 -118.492027 177 1081ft 109kts
08-May-19 19:48 34.205596 -118.489956 176 806ft 30kts
08-May-19 19:49 34.202472 -118.490624 211 806ft 5kts
08-May-19 19:50 34.200480 -118.490567 264 806ft 4kts
08-May-19 19:51 34.200473 -118.490834 269 806ft 0kts

Navigation Log

Ident Type
Flight plan parsing failed, navigation log unavailable